sensor_id;sensor_type;location;lat;lon;timestamp;P1;durP1;ratioP1;P2;durP2;ratioP2
7267;SDS011;3675;43.276;27.962;2022-08-19T00:00:37;5.82;;;5.32;;
7267;SDS011;3675;43.276;27.962;2022-08-19T00:03:08;5.15;;;4.75;;
7267;SDS011;3675;43.276;27.962;2022-08-19T00:05:34;5.05;;;4.75;;
7267;SDS011;3675;43.276;27.962;2022-08-19T00:07:59;6.38;;;5.40;;
7267;SDS011;3675;43.276;27.962;2022-08-19T00:10:28;7.00;;;5.47;;
7267;SDS011;3675;43.276;27.962;2022-08-19T00:12:53;5.60;;;5.07;;
7267;SDS011;3675;43.276;27.962;2022-08-19T00:15:19;6.55;;;5.95;;
7267;SDS011;3675;43.276;27.962;2022-08-19T00:17:46;6.55;;;5.93;;
7267;SDS011;3675;43.276;27.962;2022-08-19T00:20:13;6.53;;;5.75;;
7267;SDS011;3675;43.276;27.962;2022-08-19T00:22:43;6.30;;;5.72;;
7267;SDS011;3675;43.276;27.962;2022-08-19T00:25:09;5.85;;;5.35;;
7267;SDS011;3675;43.276;27.962;2022-08-19T00:27:35;5.80;;;5.40;;
7267;SDS011;3675;43.276;27.962;2022-08-19T00:30:02;6.72;;;5.72;;
7267;SDS011;3675;43.276;27.962;2022-08-19T00:32:29;5.75;;;5.35;;
7267;SDS011;3675;43.276;27.962;2022-08-19T00:34:54;7.82;;;5.47;;
7267;SDS011;3675;43.276;27.962;2022-08-19T00:37:21;7.85;;;5.85;;
7267;SDS011;3675;43.276;27.962;2022-08-19T00:39:48;5.60;;;5.05;;
7267;SDS011;3675;43.276;27.962;2022-08-19T00:42:14;5.60;;;5.20;;
7267;SDS011;3675;43.276;27.962;2022-08-19T00:44:40;5.70;;;5.22;;
7267;SDS011;3675;43.276;27.962;2022-08-19T00:47:06;6.53;;;5.95;;
7267;SDS011;3675;43.276;27.962;2022-08-19T00:49:34;5.72;;;5.22;;
7267;SDS011;3675;43.276;27.962;2022-08-19T00:52:14;6.50;;;5.45;;
7267;SDS011;3675;43.276;27.962;2022-08-19T00:54:41;6.65;;;5.82;;
7267;SDS011;3675;43.276;27.962;2022-08-19T00:57:08;8.35;;;5.90;;
7267;SDS011;3675;43.276;27.962;2022-08-19T00:59:38;5.28;;;4.78;;
7267;SDS011;3675;43.276;27.962;2022-08-19T01:02:05;5.60;;;5.20;;
7267;SDS011;3675;43.276;27.962;2022-08-19T01:04:31;6.97;;;5.72;;
7267;SDS011;3675;43.276;27.962;2022-08-19T01:06:56;6.55;;;5.50;;
7267;SDS011;3675;43.276;27.962;2022-08-19T01:09:24;6.15;;;5.55;;
7267;SDS011;3675;43.276;27.962;2022-08-19T01:11:49;6.32;;;5.75;;
7267;SDS011;3675;43.276;27.962;2022-08-19T01:14:15;9.25;;;5.20;;
7267;SDS011;3675;43.276;27.962;2022-08-19T01:16:41;6.25;;;5.65;;
7267;SDS011;3675;43.276;27.962;2022-08-19T01:19:54;5.72;;;5.25;;
7267;SDS011;3675;43.276;27.962;2022-08-19T01:25:05;6.10;;;5.60;;
7267;SDS011;3675;43.276;27.962;2022-08-19T01:27:43;7.38;;;6.50;;
7267;SDS011;3675;43.276;27.962;2022-08-19T01:30:14;5.65;;;5.15;;
7267;SDS011;3675;43.276;27.962;2022-08-19T01:32:41;6.15;;;5.55;;
7267;SDS011;3675;43.276;27.962;2022-08-19T01:35:09;5.78;;;5.28;;
7267;SDS011;3675;43.276;27.962;2022-08-19T01:37:45;6.25;;;5.47;;
7267;SDS011;3675;43.276;27.962;2022-08-19T01:40:22;6.25;;;5.53;;
7267;SDS011;3675;43.276;27.962;2022-08-19T01:42:51;5.40;;;4.90;;
7267;SDS011;3675;43.276;27.962;2022-08-19T01:45:18;6.22;;;5.63;;
7267;SDS011;3675;43.276;27.962;2022-08-19T01:47:45;6.07;;;5.57;;
7267;SDS011;3675;43.276;27.962;2022-08-19T01:50:11;6.10;;;5.53;;
7267;SDS011;3675;43.276;27.962;2022-08-19T01:52:37;5.88;;;5.28;;
7267;SDS011;3675;43.276;27.962;2022-08-19T01:55:05;9.77;;;6.60;;
7267;SDS011;3675;43.276;27.962;2022-08-19T01:57:33;6.38;;;5.53;;
7267;SDS011;3675;43.276;27.962;2022-08-19T01:59:58;5.88;;;5.40;;
7267;SDS011;3675;43.276;27.962;2022-08-19T02:02:25;6.90;;;6.30;;
7267;SDS011;3675;43.276;27.962;2022-08-19T02:04:50;6.07;;;5.57;;
7267;SDS011;3675;43.276;27.962;2022-08-19T02:07:19;5.88;;;5.40;;
7267;SDS011;3675;43.276;27.962;2022-08-19T02:09:46;6.13;;;5.63;;
7267;SDS011;3675;43.276;27.962;2022-08-19T02:12:13;6.88;;;5.65;;
7267;SDS011;3675;43.276;27.962;2022-08-19T02:14:39;9.70;;;5.75;;
7267;SDS011;3675;43.276;27.962;2022-08-19T02:17:05;10.75;;;6.35;;
7267;SDS011;3675;43.276;27.962;2022-08-19T02:19:31;6.82;;;5.65;;
7267;SDS011;3675;43.276;27.962;2022-08-19T02:22:00;5.88;;;5.38;;
7267;SDS011;3675;43.276;27.962;2022-08-19T02:24:26;6.68;;;6.07;;
7267;SDS011;3675;43.276;27.962;2022-08-19T02:26:52;8.30;;;5.43;;
7267;SDS011;3675;43.276;27.962;2022-08-19T02:29:20;6.25;;;5.70;;
7267;SDS011;3675;43.276;27.962;2022-08-19T02:31:46;6.00;;;5.53;;
7267;SDS011;3675;43.276;27.962;2022-08-19T02:34:12;7.00;;;6.38;;
7267;SDS011;3675;43.276;27.962;2022-08-19T02:36:37;6.13;;;5.35;;
7267;SDS011;3675;43.276;27.962;2022-08-19T02:39:04;7.80;;;5.97;;
7267;SDS011;3675;43.276;27.962;2022-08-19T02:41:30;6.72;;;6.10;;
7267;SDS011;3675;43.276;27.962;2022-08-19T02:43:58;6.55;;;6.00;;
7267;SDS011;3675;43.276;27.962;2022-08-19T02:46:26;6.97;;;6.18;;
7267;SDS011;3675;43.276;27.962;2022-08-19T02:48:55;7.20;;;5.97;;
7267;SDS011;3675;43.276;27.962;2022-08-19T02:51:27;6.68;;;5.85;;
7267;SDS011;3675;43.276;27.962;2022-08-19T02:53:55;6.03;;;5.53;;
7267;SDS011;3675;43.276;27.962;2022-08-19T02:56:21;6.60;;;5.75;;
7267;SDS011;3675;43.276;27.962;2022-08-19T02:58:49;6.10;;;5.55;;
7267;SDS011;3675;43.276;27.962;2022-08-19T03:01:29;6.85;;;5.65;;
7267;SDS011;3675;43.276;27.962;2022-08-19T03:03:56;6.25;;;5.80;;
7267;SDS011;3675;43.276;27.962;2022-08-19T03:06:23;6.70;;;6.10;;
7267;SDS011;3675;43.276;27.962;2022-08-19T03:08:50;8.93;;;6.10;;
7267;SDS011;3675;43.276;27.962;2022-08-19T03:11:20;8.48;;;5.88;;
7267;SDS011;3675;43.276;27.962;2022-08-19T03:13:48;5.95;;;5.55;;
7267;SDS011;3675;43.276;27.962;2022-08-19T03:16:14;5.97;;;5.40;;
7267;SDS011;3675;43.276;27.962;2022-08-19T03:18:40;6.82;;;5.63;;
7267;SDS011;3675;43.276;27.962;2022-08-19T03:21:06;6.65;;;5.97;;
7267;SDS011;3675;43.276;27.962;2022-08-19T03:23:31;6.60;;;5.30;;
7267;SDS011;3675;43.276;27.962;2022-08-19T03:25:57;6.63;;;5.93;;
7267;SDS011;3675;43.276;27.962;2022-08-19T03:28:23;8.02;;;6.38;;
7267;SDS011;3675;43.276;27.962;2022-08-19T03:30:59;6.45;;;5.85;;
7267;SDS011;3675;43.276;27.962;2022-08-19T03:33:33;6.38;;;5.82;;
7267;SDS011;3675;43.276;27.962;2022-08-19T03:36:22;6.40;;;5.72;;
7267;SDS011;3675;43.276;27.962;2022-08-19T03:38:58;7.25;;;6.47;;
7267;SDS011;3675;43.276;27.962;2022-08-19T03:41:28;6.03;;;5.32;;
7267;SDS011;3675;43.276;27.962;2022-08-19T03:43:56;9.20;;;6.53;;
7267;SDS011;3675;43.276;27.962;2022-08-19T03:46:26;6.70;;;6.10;;
7267;SDS011;3675;43.276;27.962;2022-08-19T03:48:56;7.43;;;6.18;;
7267;SDS011;3675;43.276;27.962;2022-08-19T03:51:27;6.85;;;6.32;;
7267;SDS011;3675;43.276;27.962;2022-08-19T03:53:55;6.97;;;6.22;;
7267;SDS011;3675;43.276;27.962;2022-08-19T03:56:21;6.88;;;6.13;;
7267;SDS011;3675;43.276;27.962;2022-08-19T03:58:47;6.60;;;6.00;;
7267;SDS011;3675;43.276;27.962;2022-08-19T04:01:14;8.80;;;6.28;;
7267;SDS011;3675;43.276;27.962;2022-08-19T04:03:42;6.32;;;5.72;;
7267;SDS011;3675;43.276;27.962;2022-08-19T04:06:13;10.70;;;6.97;;
7267;SDS011;3675;43.276;27.962;2022-08-19T04:08:43;6.50;;;6.05;;
7267;SDS011;3675;43.276;27.962;2022-08-19T04:11:11;9.07;;;6.30;;
7267;SDS011;3675;43.276;27.962;2022-08-19T04:13:41;7.30;;;6.60;;
7267;SDS011;3675;43.276;27.962;2022-08-19T04:16:09;7.15;;;6.47;;
7267;SDS011;3675;43.276;27.962;2022-08-19T04:18:35;7.22;;;5.40;;
7267;SDS011;3675;43.276;27.962;2022-08-19T04:21:01;6.22;;;5.65;;
7267;SDS011;3675;43.276;27.962;2022-08-19T04:23:27;7.82;;;6.47;;
7267;SDS011;3675;43.276;27.962;2022-08-19T04:25:53;8.80;;;6.13;;
7267;SDS011;3675;43.276;27.962;2022-08-19T04:28:20;6.95;;;6.10;;
7267;SDS011;3675;43.276;27.962;2022-08-19T04:30:47;6.90;;;6.25;;
7267;SDS011;3675;43.276;27.962;2022-08-19T04:33:15;7.32;;;6.70;;
7267;SDS011;3675;43.276;27.962;2022-08-19T04:35:43;5.95;;;5.38;;
7267;SDS011;3675;43.276;27.962;2022-08-19T04:38:10;6.32;;;5.85;;
7267;SDS011;3675;43.276;27.962;2022-08-19T04:40:46;7.28;;;6.13;;
7267;SDS011;3675;43.276;27.962;2022-08-19T04:43:32;6.32;;;5.72;;
7267;SDS011;3675;43.276;27.962;2022-08-19T04:46:09;12.45;;;6.05;;
7267;SDS011;3675;43.276;27.962;2022-08-19T04:48:38;6.80;;;6.20;;
7267;SDS011;3675;43.276;27.962;2022-08-19T04:51:09;6.60;;;6.00;;
7267;SDS011;3675;43.276;27.962;2022-08-19T04:53:38;5.90;;;5.47;;
7267;SDS011;3675;43.276;27.962;2022-08-19T04:56:14;6.38;;;5.63;;
7267;SDS011;3675;43.276;27.962;2022-08-19T04:58:44;7.40;;;5.93;;
7267;SDS011;3675;43.276;27.962;2022-08-19T05:01:15;7.05;;;5.32;;
7267;SDS011;3675;43.276;27.962;2022-08-19T05:03:43;10.25;;;6.13;;
7267;SDS011;3675;43.276;27.962;2022-08-19T05:06:10;5.53;;;5.13;;
7267;SDS011;3675;43.276;27.962;2022-08-19T05:08:37;7.18;;;6.10;;
7267;SDS011;3675;43.276;27.962;2022-08-19T05:11:12;7.13;;;6.03;;
7267;SDS011;3675;43.276;27.962;2022-08-19T05:13:40;6.00;;;5.47;;
7267;SDS011;3675;43.276;27.962;2022-08-19T05:16:08;9.50;;;6.07;;
7267;SDS011;3675;43.276;27.962;2022-08-19T05:18:34;5.75;;;5.20;;
7267;SDS011;3675;43.276;27.962;2022-08-19T05:21:18;6.82;;;6.32;;
7267;SDS011;3675;43.276;27.962;2022-08-19T05:24:04;6.43;;;5.93;;
7267;SDS011;3675;43.276;27.962;2022-08-19T05:26:37;5.68;;;5.20;;
7267;SDS011;3675;43.276;27.962;2022-08-19T05:29:04;6.32;;;5.82;;
7267;SDS011;3675;43.276;27.962;2022-08-19T05:31:30;5.97;;;5.32;;
7267;SDS011;3675;43.276;27.962;2022-08-19T05:33:56;8.77;;;6.68;;
7267;SDS011;3675;43.276;27.962;2022-08-19T05:36:24;7.68;;;6.45;;
7267;SDS011;3675;43.276;27.962;2022-08-19T05:38:56;5.10;;;4.80;;
7267;SDS011;3675;43.276;27.962;2022-08-19T05:41:22;6.22;;;5.75;;
7267;SDS011;3675;43.276;27.962;2022-08-19T05:43:54;7.85;;;5.50;;
7267;SDS011;3675;43.276;27.962;2022-08-19T05:46:23;6.55;;;5.85;;
7267;SDS011;3675;43.276;27.962;2022-08-19T05:48:49;9.00;;;6.13;;
7267;SDS011;3675;43.276;27.962;2022-08-19T05:51:15;8.68;;;6.20;;
7267;SDS011;3675;43.276;27.962;2022-08-19T05:53:41;6.40;;;5.72;;
7267;SDS011;3675;43.276;27.962;2022-08-19T05:56:09;6.18;;;5.63;;
7267;SDS011;3675;43.276;27.962;2022-08-19T05:58:40;9.77;;;5.65;;
7267;SDS011;3675;43.276;27.962;2022-08-19T06:01:10;7.13;;;6.45;;
7267;SDS011;3675;43.276;27.962;2022-08-19T06:03:41;6.30;;;5.70;;
7267;SDS011;3675;43.276;27.962;2022-08-19T06:06:09;5.88;;;5.45;;
7267;SDS011;3675;43.276;27.962;2022-08-19T06:08:39;6.43;;;5.82;;
7267;SDS011;3675;43.276;27.962;2022-08-19T06:11:50;8.02;;;5.57;;
7267;SDS011;3675;43.276;27.962;2022-08-19T06:14:08;7.03;;;5.55;;
7267;SDS011;3675;43.276;27.962;2022-08-19T06:16:37;12.07;;;5.97;;
7267;SDS011;3675;43.276;27.962;2022-08-19T06:19:04;6.45;;;5.85;;
7267;SDS011;3675;43.276;27.962;2022-08-19T06:21:32;5.80;;;5.30;;
7267;SDS011;3675;43.276;27.962;2022-08-19T06:23:58;5.78;;;5.28;;
7267;SDS011;3675;43.276;27.962;2022-08-19T06:26:24;6.40;;;5.82;;
7267;SDS011;3675;43.276;27.962;2022-08-19T06:28:51;6.03;;;5.50;;
7267;SDS011;3675;43.276;27.962;2022-08-19T06:31:18;5.78;;;5.18;;
7267;SDS011;3675;43.276;27.962;2022-08-19T06:33:46;7.28;;;5.30;;
7267;SDS011;3675;43.276;27.962;2022-08-19T06:36:18;6.07;;;5.47;;
7267;SDS011;3675;43.276;27.962;2022-08-19T06:38:51;5.90;;;5.15;;
7267;SDS011;3675;43.276;27.962;2022-08-19T06:41:18;5.43;;;5.13;;
7267;SDS011;3675;43.276;27.962;2022-08-19T06:43:43;5.40;;;4.90;;
7267;SDS011;3675;43.276;27.962;2022-08-19T06:46:27;6.35;;;5.72;;
7267;SDS011;3675;43.276;27.962;2022-08-19T06:48:53;7.07;;;5.20;;
7267;SDS011;3675;43.276;27.962;2022-08-19T06:51:19;5.78;;;5.38;;
7267;SDS011;3675;43.276;27.962;2022-08-19T06:53:46;6.38;;;5.60;;
7267;SDS011;3675;43.276;27.962;2022-08-19T06:56:14;5.47;;;4.93;;
7267;SDS011;3675;43.276;27.962;2022-08-19T06:58:40;5.90;;;5.40;;
7267;SDS011;3675;43.276;27.962;2022-08-19T07:01:06;5.70;;;5.30;;
7267;SDS011;3675;43.276;27.962;2022-08-19T07:03:33;4.88;;;4.47;;
7267;SDS011;3675;43.276;27.962;2022-08-19T07:08:32;5.57;;;5.13;;
7267;SDS011;3675;43.276;27.962;2022-08-19T07:11:00;8.38;;;5.90;;
7267;SDS011;3675;43.276;27.962;2022-08-19T07:13:25;5.00;;;4.68;;
7267;SDS011;3675;43.276;27.962;2022-08-19T07:15:51;5.50;;;4.93;;
7267;SDS011;3675;43.276;27.962;2022-08-19T07:18:18;5.47;;;5.07;;
7267;SDS011;3675;43.276;27.962;2022-08-19T07:20:44;5.70;;;5.30;;
7267;SDS011;3675;43.276;27.962;2022-08-19T07:23:10;5.80;;;5.30;;
7267;SDS011;3675;43.276;27.962;2022-08-19T07:25:37;5.40;;;5.00;;
7267;SDS011;3675;43.276;27.962;2022-08-19T07:28:03;5.00;;;4.45;;
7267;SDS011;3675;43.276;27.962;2022-08-19T07:30:29;5.47;;;5.03;;
7267;SDS011;3675;43.276;27.962;2022-08-19T07:32:55;5.65;;;4.90;;
7267;SDS011;3675;43.276;27.962;2022-08-19T07:35:21;5.55;;;4.50;;
7267;SDS011;3675;43.276;27.962;2022-08-19T07:37:48;7.40;;;4.68;;
7267;SDS011;3675;43.276;27.962;2022-08-19T07:40:14;4.53;;;4.15;;
7267;SDS011;3675;43.276;27.962;2022-08-19T07:42:39;5.03;;;4.53;;
7267;SDS011;3675;43.276;27.962;2022-08-19T07:45:06;5.25;;;4.93;;
7267;SDS011;3675;43.276;27.962;2022-08-19T07:47:35;4.82;;;4.43;;
7267;SDS011;3675;43.276;27.962;2022-08-19T07:50:01;5.60;;;4.45;;
7267;SDS011;3675;43.276;27.962;2022-08-19T07:52:29;5.85;;;5.30;;
7267;SDS011;3675;43.276;27.962;2022-08-19T07:54:55;6.18;;;4.82;;
7267;SDS011;3675;43.276;27.962;2022-08-19T07:57:20;8.98;;;4.60;;
7267;SDS011;3675;43.276;27.962;2022-08-19T07:59:46;4.78;;;4.43;;
7267;SDS011;3675;43.276;27.962;2022-08-19T08:02:12;4.70;;;4.35;;
7267;SDS011;3675;43.276;27.962;2022-08-19T08:04:37;5.25;;;4.93;;
7267;SDS011;3675;43.276;27.962;2022-08-19T08:07:21;4.80;;;4.47;;
7267;SDS011;3675;43.276;27.962;2022-08-19T08:10:06;4.97;;;4.57;;
7267;SDS011;3675;43.276;27.962;2022-08-19T08:12:38;4.63;;;4.22;;
7267;SDS011;3675;43.276;27.962;2022-08-19T08:15:12;4.53;;;4.32;;
7267;SDS011;3675;43.276;27.962;2022-08-19T08:17:50;5.07;;;4.68;;
7267;SDS011;3675;43.276;27.962;2022-08-19T08:20:16;6.15;;;4.00;;
7267;SDS011;3675;43.276;27.962;2022-08-19T08:22:45;5.05;;;4.55;;
7267;SDS011;3675;43.276;27.962;2022-08-19T08:25:31;4.95;;;4.65;;
7267;SDS011;3675;43.276;27.962;2022-08-19T08:27:56;4.90;;;4.50;;
7267;SDS011;3675;43.276;27.962;2022-08-19T08:30:25;4.05;;;3.80;;
7267;SDS011;3675;43.276;27.962;2022-08-19T08:32:52;4.28;;;3.97;;
7267;SDS011;3675;43.276;27.962;2022-08-19T08:35:19;4.70;;;4.22;;
7267;SDS011;3675;43.276;27.962;2022-08-19T08:37:46;6.65;;;3.92;;
7267;SDS011;3675;43.276;27.962;2022-08-19T08:40:33;4.28;;;3.97;;
7267;SDS011;3675;43.276;27.962;2022-08-19T08:43:04;4.60;;;4.28;;
7267;SDS011;3675;43.276;27.962;2022-08-19T08:45:32;4.32;;;3.92;;
7267;SDS011;3675;43.276;27.962;2022-08-19T08:48:02;4.28;;;4.03;;
7267;SDS011;3675;43.276;27.962;2022-08-19T08:50:32;6.38;;;4.20;;
7267;SDS011;3675;43.276;27.962;2022-08-19T08:53:01;6.40;;;4.82;;
7267;SDS011;3675;43.276;27.962;2022-08-19T08:55:30;4.45;;;4.05;;
7267;SDS011;3675;43.276;27.962;2022-08-19T09:00:33;5.22;;;4.82;;
7267;SDS011;3675;43.276;27.962;2022-08-19T09:03:01;5.70;;;4.97;;
7267;SDS011;3675;43.276;27.962;2022-08-19T09:05:47;4.82;;;3.92;;
7267;SDS011;3675;43.276;27.962;2022-08-19T09:11:19;4.75;;;4.32;;
7267;SDS011;3675;43.276;27.962;2022-08-19T09:14:01;7.90;;;4.63;;
7267;SDS011;3675;43.276;27.962;2022-08-19T09:16:33;3.85;;;3.65;;
7267;SDS011;3675;43.276;27.962;2022-08-19T09:19:03;4.47;;;4.18;;
7267;SDS011;3675;43.276;27.962;2022-08-19T09:21:30;4.95;;;4.55;;
7267;SDS011;3675;43.276;27.962;2022-08-19T09:23:56;4.80;;;4.47;;
7267;SDS011;3675;43.276;27.962;2022-08-19T09:26:23;4.90;;;3.53;;
7267;SDS011;3675;43.276;27.962;2022-08-19T09:28:50;4.38;;;4.03;;
7267;SDS011;3675;43.276;27.962;2022-08-19T09:31:22;3.83;;;3.40;;
7267;SDS011;3675;43.276;27.962;2022-08-19T09:33:49;6.05;;;3.97;;
7267;SDS011;3675;43.276;27.962;2022-08-19T09:36:16;10.82;;;4.30;;
7267;SDS011;3675;43.276;27.962;2022-08-19T09:38:43;4.82;;;4.53;;
7267;SDS011;3675;43.276;27.962;2022-08-19T09:41:13;3.80;;;3.60;;
7267;SDS011;3675;43.276;27.962;2022-08-19T09:43:45;5.35;;;4.85;;
7267;SDS011;3675;43.276;27.962;2022-08-19T09:46:12;5.20;;;3.95;;
7267;SDS011;3675;43.276;27.962;2022-08-19T09:48:39;5.30;;;4.93;;
7267;SDS011;3675;43.276;27.962;2022-08-19T09:51:07;4.13;;;3.55;;
7267;SDS011;3675;43.276;27.962;2022-08-19T09:53:40;4.18;;;3.95;;
7267;SDS011;3675;43.276;27.962;2022-08-19T09:56:06;5.05;;;3.58;;
7267;SDS011;3675;43.276;27.962;2022-08-19T09:58:33;3.92;;;3.72;;
7267;SDS011;3675;43.276;27.962;2022-08-19T10:00:59;4.35;;;4.10;;
7267;SDS011;3675;43.276;27.962;2022-08-19T10:03:26;4.00;;;3.70;;
7267;SDS011;3675;43.276;27.962;2022-08-19T10:05:53;3.97;;;3.67;;
7267;SDS011;3675;43.276;27.962;2022-08-19T10:08:24;4.05;;;3.78;;
7267;SDS011;3675;43.276;27.962;2022-08-19T10:10:51;4.35;;;4.13;;
7267;SDS011;3675;43.276;27.962;2022-08-19T10:13:19;4.25;;;3.95;;
7267;SDS011;3675;43.276;27.962;2022-08-19T10:15:50;4.47;;;4.18;;
7267;SDS011;3675;43.276;27.962;2022-08-19T10:18:20;4.05;;;3.72;;
7267;SDS011;3675;43.276;27.962;2022-08-19T10:20:47;4.80;;;4.50;;
7267;SDS011;3675;43.276;27.962;2022-08-19T10:23:13;4.15;;;3.95;;
7267;SDS011;3675;43.276;27.962;2022-08-19T10:25:40;4.70;;;3.58;;
7267;SDS011;3675;43.276;27.962;2022-08-19T10:28:06;3.60;;;3.40;;
7267;SDS011;3675;43.276;27.962;2022-08-19T10:30:32;4.70;;;3.63;;
7267;SDS011;3675;43.276;27.962;2022-08-19T10:32:58;4.05;;;3.75;;
7267;SDS011;3675;43.276;27.962;2022-08-19T10:35:24;4.07;;;3.78;;
7267;SDS011;3675;43.276;27.962;2022-08-19T10:37:52;4.20;;;4.00;;
7267;SDS011;3675;43.276;27.962;2022-08-19T10:40:18;4.45;;;3.25;;
7267;SDS011;3675;43.276;27.962;2022-08-19T10:42:44;4.28;;;3.97;;
7267;SDS011;3675;43.276;27.962;2022-08-19T10:45:09;3.40;;;3.25;;
7267;SDS011;3675;43.276;27.962;2022-08-19T10:47:35;4.93;;;4.00;;
7267;SDS011;3675;43.276;27.962;2022-08-19T10:50:01;4.13;;;3.88;;
7267;SDS011;3675;43.276;27.962;2022-08-19T10:52:49;4.97;;;4.18;;
7267;SDS011;3675;43.276;27.962;2022-08-19T10:55:15;5.35;;;4.22;;
7267;SDS011;3675;43.276;27.962;2022-08-19T10:57:59;4.65;;;4.28;;
7267;SDS011;3675;43.276;27.962;2022-08-19T11:00:25;4.43;;;4.13;;
7267;SDS011;3675;43.276;27.962;2022-08-19T11:02:51;5.20;;;3.60;;
7267;SDS011;3675;43.276;27.962;2022-08-19T11:05:20;4.15;;;3.75;;
7267;SDS011;3675;43.276;27.962;2022-08-19T11:07:47;3.50;;;3.30;;
7267;SDS011;3675;43.276;27.962;2022-08-19T11:10:15;3.78;;;3.53;;
7267;SDS011;3675;43.276;27.962;2022-08-19T11:12:44;3.92;;;3.65;;
7267;SDS011;3675;43.276;27.962;2022-08-19T11:15:11;5.55;;;4.90;;
7267;SDS011;3675;43.276;27.962;2022-08-19T11:17:39;5.03;;;4.60;;
7267;SDS011;3675;43.276;27.962;2022-08-19T11:20:07;5.05;;;4.72;;
7267;SDS011;3675;43.276;27.962;2022-08-19T11:22:34;4.45;;;4.13;;
7267;SDS011;3675;43.276;27.962;2022-08-19T11:24:59;4.43;;;4.13;;
7267;SDS011;3675;43.276;27.962;2022-08-19T11:27:25;5.28;;;4.82;;
7267;SDS011;3675;43.276;27.962;2022-08-19T11:29:50;6.07;;;5.68;;
7267;SDS011;3675;43.276;27.962;2022-08-19T11:32:17;6.13;;;4.70;;
7267;SDS011;3675;43.276;27.962;2022-08-19T11:34:43;5.03;;;4.63;;
7267;SDS011;3675;43.276;27.962;2022-08-19T11:37:08;4.72;;;4.43;;
7267;SDS011;3675;43.276;27.962;2022-08-19T11:39:34;5.70;;;5.30;;
7267;SDS011;3675;43.276;27.962;2022-08-19T11:42:02;5.20;;;4.82;;
7267;SDS011;3675;43.276;27.962;2022-08-19T11:44:48;6.18;;;5.78;;
7267;SDS011;3675;43.276;27.962;2022-08-19T11:47:14;6.97;;;5.63;;
7267;SDS011;3675;43.276;27.962;2022-08-19T11:49:40;6.00;;;5.50;;
7267;SDS011;3675;43.276;27.962;2022-08-19T11:52:07;10.73;;;5.35;;
7267;SDS011;3675;43.276;27.962;2022-08-19T11:54:33;5.43;;;4.93;;
7267;SDS011;3675;43.276;27.962;2022-08-19T11:56:59;5.10;;;4.78;;
7267;SDS011;3675;43.276;27.962;2022-08-19T11:59:26;5.72;;;5.18;;
7267;SDS011;3675;43.276;27.962;2022-08-19T12:01:52;5.32;;;4.75;;
7267;SDS011;3675;43.276;27.962;2022-08-19T12:04:17;8.45;;;5.07;;
7267;SDS011;3675;43.276;27.962;2022-08-19T12:06:43;5.60;;;5.10;;
7267;SDS011;3675;43.276;27.962;2022-08-19T12:09:08;5.47;;;4.88;;
7267;SDS011;3675;43.276;27.962;2022-08-19T12:11:35;5.45;;;4.97;;
7267;SDS011;3675;43.276;27.962;2022-08-19T12:14:02;5.05;;;4.68;;
7267;SDS011;3675;43.276;27.962;2022-08-19T12:16:29;7.55;;;5.20;;
7267;SDS011;3675;43.276;27.962;2022-08-19T12:18:56;5.18;;;4.70;;
7267;SDS011;3675;43.276;27.962;2022-08-19T12:21:26;6.18;;;5.57;;
7267;SDS011;3675;43.276;27.962;2022-08-19T12:23:55;4.95;;;4.65;;
7267;SDS011;3675;43.276;27.962;2022-08-19T12:26:22;5.03;;;4.72;;
7267;SDS011;3675;43.276;27.962;2022-08-19T12:28:49;4.88;;;4.57;;
7267;SDS011;3675;43.276;27.962;2022-08-19T12:31:18;4.40;;;4.20;;
7267;SDS011;3675;43.276;27.962;2022-08-19T12:33:44;4.85;;;4.55;;
7267;SDS011;3675;43.276;27.962;2022-08-19T12:36:11;5.28;;;4.88;;
7267;SDS011;3675;43.276;27.962;2022-08-19T12:38:38;5.03;;;4.57;;
7267;SDS011;3675;43.276;27.962;2022-08-19T12:41:05;5.28;;;4.97;;
7267;SDS011;3675;43.276;27.962;2022-08-19T12:43:35;4.97;;;4.65;;
7267;SDS011;3675;43.276;27.962;2022-08-19T12:46:03;4.47;;;4.18;;
7267;SDS011;3675;43.276;27.962;2022-08-19T12:48:29;6.72;;;5.65;;
7267;SDS011;3675;43.276;27.962;2022-08-19T12:50:55;4.70;;;4.32;;
7267;SDS011;3675;43.276;27.962;2022-08-19T12:53:21;5.43;;;4.93;;
7267;SDS011;3675;43.276;27.962;2022-08-19T12:55:56;4.97;;;4.28;;
7267;SDS011;3675;43.276;27.962;2022-08-19T12:58:24;5.22;;;4.70;;
7267;SDS011;3675;43.276;27.962;2022-08-19T13:00:51;4.63;;;4.22;;
7267;SDS011;3675;43.276;27.962;2022-08-19T13:03:16;5.05;;;4.72;;
7267;SDS011;3675;43.276;27.962;2022-08-19T13:05:44;4.97;;;4.68;;
7267;SDS011;3675;43.276;27.962;2022-08-19T13:08:13;5.03;;;4.63;;
7267;SDS011;3675;43.276;27.962;2022-08-19T13:10:39;4.78;;;4.32;;
7267;SDS011;3675;43.276;27.962;2022-08-19T13:13:05;4.72;;;4.32;;
7267;SDS011;3675;43.276;27.962;2022-08-19T13:15:34;4.85;;;4.55;;
7267;SDS011;3675;43.276;27.962;2022-08-19T13:18:01;4.55;;;4.25;;
7267;SDS011;3675;43.276;27.962;2022-08-19T13:20:27;4.55;;;4.22;;
7267;SDS011;3675;43.276;27.962;2022-08-19T13:22:55;5.47;;;4.30;;
7267;SDS011;3675;43.276;27.962;2022-08-19T13:25:22;6.07;;;5.55;;
7267;SDS011;3675;43.276;27.962;2022-08-19T13:27:48;5.20;;;4.82;;
7267;SDS011;3675;43.276;27.962;2022-08-19T13:30:18;4.65;;;4.35;;
7267;SDS011;3675;43.276;27.962;2022-08-19T13:33:03;5.32;;;4.18;;
7267;SDS011;3675;43.276;27.962;2022-08-19T13:38:09;4.78;;;4.50;;
7267;SDS011;3675;43.276;27.962;2022-08-19T13:40:37;5.07;;;4.72;;
7267;SDS011;3675;43.276;27.962;2022-08-19T13:43:13;5.03;;;4.40;;
7267;SDS011;3675;43.276;27.962;2022-08-19T13:45:43;3.72;;;3.53;;
7267;SDS011;3675;43.276;27.962;2022-08-19T13:48:08;4.72;;;4.25;;
7267;SDS011;3675;43.276;27.962;2022-08-19T13:50:37;4.90;;;4.60;;
7267;SDS011;3675;43.276;27.962;2022-08-19T13:53:06;7.38;;;4.38;;
7267;SDS011;3675;43.276;27.962;2022-08-19T13:55:33;5.07;;;4.63;;
7267;SDS011;3675;43.276;27.962;2022-08-19T13:57:59;5.45;;;4.80;;
7267;SDS011;3675;43.276;27.962;2022-08-19T14:00:27;5.15;;;4.75;;
7267;SDS011;3675;43.276;27.962;2022-08-19T14:02:54;5.10;;;4.60;;
7267;SDS011;3675;43.276;27.962;2022-08-19T14:05:22;4.43;;;4.15;;
7267;SDS011;3675;43.276;27.962;2022-08-19T14:07:48;12.85;;;4.43;;
7267;SDS011;3675;43.276;27.962;2022-08-19T14:10:15;4.32;;;4.13;;
7267;SDS011;3675;43.276;27.962;2022-08-19T14:12:41;4.32;;;3.83;;
7267;SDS011;3675;43.276;27.962;2022-08-19T14:15:08;5.15;;;4.65;;
7267;SDS011;3675;43.276;27.962;2022-08-19T14:17:46;4.47;;;3.88;;
7267;SDS011;3675;43.276;27.962;2022-08-19T14:20:14;5.00;;;3.85;;
7267;SDS011;3675;43.276;27.962;2022-08-19T14:22:44;3.65;;;3.35;;
7267;SDS011;3675;43.276;27.962;2022-08-19T14:25:13;4.45;;;4.15;;
7267;SDS011;3675;43.276;27.962;2022-08-19T14:27:40;3.92;;;3.67;;
7267;SDS011;3675;43.276;27.962;2022-08-19T14:30:07;4.35;;;3.85;;
7267;SDS011;3675;43.276;27.962;2022-08-19T14:32:34;7.03;;;3.83;;
7267;SDS011;3675;43.276;27.962;2022-08-19T14:35:00;4.82;;;4.07;;
7267;SDS011;3675;43.276;27.962;2022-08-19T14:37:26;4.60;;;4.25;;
7267;SDS011;3675;43.276;27.962;2022-08-19T14:39:52;4.13;;;3.83;;
7267;SDS011;3675;43.276;27.962;2022-08-19T14:42:21;4.57;;;4.30;;
7267;SDS011;3675;43.276;27.962;2022-08-19T14:44:46;4.05;;;3.75;;
7267;SDS011;3675;43.276;27.962;2022-08-19T14:47:12;4.57;;;4.25;;
7267;SDS011;3675;43.276;27.962;2022-08-19T14:49:37;4.40;;;4.05;;
7267;SDS011;3675;43.276;27.962;2022-08-19T14:52:04;4.57;;;4.20;;
7267;SDS011;3675;43.276;27.962;2022-08-19T14:54:30;4.22;;;3.92;;
7267;SDS011;3675;43.276;27.962;2022-08-19T14:56:56;5.05;;;4.65;;
7267;SDS011;3675;43.276;27.962;2022-08-19T14:59:21;3.83;;;3.63;;
7267;SDS011;3675;43.276;27.962;2022-08-19T15:01:47;4.40;;;4.00;;
7267;SDS011;3675;43.276;27.962;2022-08-19T15:04:12;3.95;;;3.75;;
7267;SDS011;3675;43.276;27.962;2022-08-19T15:06:41;4.53;;;4.13;;
7267;SDS011;3675;43.276;27.962;2022-08-19T15:09:07;3.72;;;3.53;;
7267;SDS011;3675;43.276;27.962;2022-08-19T15:11:33;4.47;;;4.18;;
7267;SDS011;3675;43.276;27.962;2022-08-19T15:13:59;4.07;;;3.78;;
7267;SDS011;3675;43.276;27.962;2022-08-19T15:16:25;4.53;;;4.25;;
7267;SDS011;3675;43.276;27.962;2022-08-19T15:18:51;4.75;;;4.35;;
7267;SDS011;3675;43.276;27.962;2022-08-19T15:21:18;4.32;;;4.03;;